Flight Track Log - Related Links

Times and Time Zones

All times are in EDT time to prevent confusion due to time zone crossing. See the C-FKCO flight status page for this flight to view local times or setup timezone preferences in your user account.

Time Position Orientation Groundspeed Altitude Reporting Facility
EDT Latitude Longitude Course Direction KTS MPH feet Rate Location/Type
Wed 07:28:23 PM 49.1667 -123.2333 147° Southeast 160 184 1,800  Level Vancouver Center
Wed 07:33:23 PM 48.9667 -123.0333 100° East 310 357 12,300 2,117 Climbing Vancouver Center
Wed 07:34:23 PM 48.9500 -122.8833 90° East 340 391 14,500 2,150 Climbing Vancouver Center
Wed 07:35:23 PM 48.9500 -122.7333 90° East 360 414 16,600 1,850 Climbing Vancouver Center
Wed 07:36:23 PM 48.9500 -122.5500 90° East 380 437 18,200 1,650 Climbing Vancouver Center
Wed 07:37:23 PM 48.9500 -122.4000 82° East 400 460 19,900 1,750 Climbing Vancouver Center
Wed 07:38:23 PM 48.9667 -122.2167 90° East 420 483 21,700 1,700 Climbing Vancouver Center
Wed 07:39:23 PM 48.9667 -122.0500 90° East 430 495 23,300 1,350 Climbing Vancouver Center
Wed 07:40:23 PM 48.9667 -121.8333 81° East 440 506 24,400 1,100 Climbing Vancouver Center
Wed 07:41:23 PM 48.9833 -121.6667 77° East 460 529 25,500 1,000 Climbing Vancouver Center
Wed 07:42:23 PM 49.0167 -121.4500 83° East 470 541 26,400 950 Climbing Vancouver Center
Wed 07:43:23 PM 49.0333 -121.2500 83° East 490 564 27,400 850 Climbing Vancouver Center
Wed 07:44:23 PM 49.0500 -121.0500 78° East 500 575 28,100 800 Climbing Vancouver Center
Wed 07:45:23 PM 49.0833 -120.8167 78° East 520 598 29,000 1,000 Climbing Vancouver Center
Wed 07:46:23 PM 49.1167 -120.5833 76° East 530 610 30,100 900 Climbing Vancouver Center
Wed 07:47:23 PM 49.1500 -120.3833 61° Northeast 540 621 30,800 850 Climbing Vancouver Center
Wed 07:48:23 PM 49.2333 -120.1500 70° East 560 644 31,800 950 Climbing Vancouver Center
Wed 07:49:23 PM 49.2833 -119.9333 65° Northeast 560 644 32,700 600 Climbing Vancouver Center
Wed 07:50:23 PM 49.3500 -119.7167 69° East 560 644 33,000 250 Climbing Vancouver Center
Wed 07:51:23 PM 49.4000 -119.5167 61° Northeast 570 656 33,200 650 Climbing Vancouver Center
Wed 07:52:23 PM 49.4833 -119.2833 70° East 560 644 34,300 700 Climbing Vancouver Center
Wed 07:53:23 PM 49.5333 -119.0667 65° Northeast 560 644 34,600 350 Climbing Vancouver Center
Wed 07:54:23 PM 49.6000 -118.8500 72° East 570 656 35,000 200 Climbing Vancouver Center
Wed 07:55:23 PM 49.6500 -118.6167 59° Northeast 560 644 35,000 -50 Level Vancouver Center
Wed 07:56:23 PM 49.7333 -118.4000 72° East 560 644 34,900  Descending Vancouver Center
Wed 07:57:23 PM 49.7833 -118.1667 70° East 560 644 35,000 50 Climbing Vancouver Center
Wed 07:58:23 PM 49.8333 -117.9500 59° Northeast 560 644 35,000  Level Vancouver Center
Wed 07:59:23 PM 49.9167 -117.7333 70° East 560 644 35,000  Level Vancouver Center
Wed 08:00:23 PM 49.9667 -117.5167 73° East 560 644 35,000  Level Vancouver Center
Wed 08:01:23 PM 50.0167 -117.2667 64° Northeast 560 644 35,000  Level Vancouver Center
Wed 08:02:23 PM 50.0833 -117.0500 70° East 560 644 35,000  Level Vancouver Center
Wed 08:03:23 PM 50.1333 -116.8333 66° East 550 633 35,000 -55 Level Vancouver Center
Wed 08:04:13 PM 50.1667 -116.7167 66° East 550 633 34,900  Descending Edmonton Center
Wed 08:05:13 PM 50.2333 -116.4833 73° East 560 644 35,000 100 Climbing Edmonton Center
Wed 08:06:13 PM 50.2833 -116.2333 75° East 560 644 35,100 50 Climbing Edmonton Center
Wed 08:07:13 PM 50.3167 -116.0333 67° East 560 644 35,100 -50 Level Edmonton Center
Wed 08:08:13 PM 50.3833 -115.7833 69° East 550 633 35,000 -50 Descending Edmonton Center
Wed 08:09:13 PM 50.4333 -115.5833 67° East 540 621 35,000  Level Edmonton Center
Wed 08:10:13 PM 50.5000 -115.3333 68° East 550 633 35,000  Level Edmonton Center
Wed 08:11:13 PM 50.5500 -115.1333 73° East 550 633 35,000  Level Edmonton Center
Wed 08:12:13 PM 50.6000 -114.8667 68° East 550 633 35,000 50 Level Edmonton Center
Wed 08:13:13 PM 50.6500 -114.6667 66° East 550 633 35,100 50 Climbing Edmonton Center
Wed 08:14:13 PM 50.7167 -114.4333 70° East 550 633 35,100 -50 Level Edmonton Center
Wed 08:15:13 PM 50.7667 -114.2167 78° East 540 621 35,000 -100 Descending Edmonton Center
Wed 08:16:13 PM 50.8000 -113.9667 70° East 540 621 34,900  Descending Edmonton Center
Wed 08:17:13 PM 50.8500 -113.7500 70° East 540 621 35,000 50 Climbing Edmonton Center
Wed 08:18:13 PM 50.9000 -113.5333 71° East 540 621 35,000  Level Edmonton Center
Wed 08:19:13 PM 50.9500 -113.3000 71° East 540 621 35,000  Level Edmonton Center
Wed 08:20:13 PM 51.0000 -113.0667 65° Northeast 540 621 35,000  Level Edmonton Center
Wed 08:21:13 PM 51.0667 -112.8333 75° East 540 621 35,000  Level Edmonton Center
Wed 08:22:13 PM 51.1000 -112.6333 68° East 540 621 35,000  Level Edmonton Center
Wed 08:23:13 PM 51.1667 -112.3667 82° East 540 621 35,000  Level Edmonton Center
Wed 08:24:13 PM 51.1833 -112.1667 71° East 530 610 35,000  Level Edmonton Center
Wed 08:25:13 PM 51.2333 -111.9333 70° East 530 610 35,000  Level Edmonton Center
Wed 08:26:13 PM 51.2833 -111.7167 71° East 530 610 35,000  Level Edmonton Center
Wed 08:27:13 PM 51.3333 -111.4833 74° East 530 610 35,000  Level Edmonton Center
Wed 08:28:09 PM 51.3667 -111.3000 71° East 540 621 35,000  Level Winnipeg Center
Wed 08:29:09 PM 51.4167 -111.0667 71° East 530 610 35,000  Level Winnipeg Center
Wed 08:30:09 PM 51.4667 -110.8333 75° East 530 610 35,000  Level Winnipeg Center
Wed 08:31:09 PM 51.5000 -110.6333 73° East 540 621 35,000  Level Winnipeg Center
Wed 08:32:09 PM 51.5500 -110.3667 68° East 530 610 35,000  Level Winnipeg Center
Wed 08:33:09 PM 51.6000 -110.1667 77° East 540 621 35,000  Level Winnipeg Center
Wed 08:34:09 PM 51.6333 -109.9333 71° East 540 621 35,000  Level Winnipeg Center
Wed 08:35:09 PM 51.6833 -109.7000 77° East 530 610 35,000  Level Winnipeg Center
Wed 08:36:09 PM 51.7167 -109.4667 71° East 530 610 35,000  Level Winnipeg Center
Wed 08:37:09 PM 51.7667 -109.2333 76° East 530 610 35,000  Level Winnipeg Center
Wed 08:38:09 PM 51.8000 -109.0167 71° East 520 598 35,000  Level Winnipeg Center
Wed 08:39:09 PM 51.8500 -108.7833 83° East 530 610 35,000  Level Winnipeg Center
Wed 08:40:09 PM 51.8667 -108.5500 76° East 520 598 35,000  Level Winnipeg Center
Wed 08:41:09 PM 51.9000 -108.3333 71° East 520 598 35,000  Level Winnipeg Center
Wed 08:42:09 PM 51.9500 -108.1000 75° East 520 598 35,000  Level Winnipeg Center
Wed 08:43:09 PM 51.9833 -107.9000 78° East 520 598 35,000  Level Winnipeg Center
Wed 08:44:09 PM 52.0167 -107.6500 71° East 520 598 35,000  Level Winnipeg Center
Wed 08:45:09 PM 52.0667 -107.4167 76° East 520 598 35,000  Level Winnipeg Center
Wed 08:46:09 PM 52.1000 -107.2000 77° East 520 598 35,000  Level Winnipeg Center
Wed 08:47:09 PM 52.1333 -106.9667 83° East 520 598 35,000  Level Winnipeg Center
Wed 08:48:09 PM 52.1500 -106.7500 96° East 520 598 35,000  Level Winnipeg Center
Wed 08:49:09 PM 52.1333 -106.5000 104° East 510 587 35,000  Level Winnipeg Center
Wed 08:50:09 PM 52.1000 -106.2833 105° East 500 575 35,000  Level Winnipeg Center
Wed 08:51:09 PM 52.0667 -106.0833 103° East 500 575 35,000  Level Winnipeg Center
Wed 08:52:09 PM 52.0333 -105.8500 97° East 500 575 35,000  Level Winnipeg Center
Wed 08:53:09 PM 52.0167 -105.6333 103° East 500 575 35,000  Level Winnipeg Center
Wed 08:54:09 PM 51.9833 -105.4000 104° East 500 575 35,000  Level Winnipeg Center
Wed 08:55:09 PM 51.9500 -105.1833 105° East 500 575 35,000  Level Winnipeg Center
Wed 08:56:09 PM 51.9167 -104.9833 103° East 490 564 35,000 50 Level Winnipeg Center
Wed 08:57:09 PM 51.8833 -104.7500 97° East 490 564 35,100 500 Climbing Winnipeg Center
Wed 08:58:09 PM 51.8667 -104.5333 112° Southeast 490 564 36,000 800 Climbing Winnipeg Center
Wed 08:59:09 PM 51.8167 -104.3333 97° East 480 552 36,700 350 Climbing Winnipeg Center
Wed 09:00:09 PM 51.8000 -104.1167 104° East 480 552 36,700 150 Level Winnipeg Center
Wed 09:01:09 PM 51.7667 -103.9000 105° East 490 564 37,000 150 Climbing Winnipeg Center
Wed 09:02:09 PM 51.7333 -103.7000 110° East 490 564 37,000  Level Winnipeg Center
Wed 09:03:09 PM 51.6833 -103.4833 103° East 490 564 37,000  Level Winnipeg Center
Wed 09:04:09 PM 51.6500 -103.2500 98° East 490 564 37,000  Level Winnipeg Center
Wed 09:05:09 PM 51.6333 -103.0667 110° East 480 552 37,000  Level Winnipeg Center
Wed 09:06:09 PM 51.5833 -102.8500 105° East 490 564 37,000  Level Winnipeg Center
Wed 09:07:09 PM 51.5500 -102.6500 104° East 490 564 37,000  Level Winnipeg Center
Wed 09:08:09 PM 51.5167 -102.4333 104° East 490 564 37,000  Level Winnipeg Center
Wed 09:09:09 PM 51.4833 -102.2167 103° East 500 575 37,000  Level Winnipeg Center
Wed 09:10:09 PM 51.4500 -101.9833 114° Southeast 490 564 37,000  Level Winnipeg Center
Wed 09:11:09 PM 51.4000 -101.8000 104° East 490 564 37,000  Level Winnipeg Center
Wed 09:12:09 PM 51.3667 -101.5833 104° East 490 564 37,000  Level Winnipeg Center
Wed 09:13:09 PM 51.3333 -101.3667 104° East 490 564 37,000  Level Winnipeg Center
Wed 09:14:09 PM 51.3000 -101.1500 112° Southeast 490 564 37,000  Level Winnipeg Center
Wed 09:15:09 PM 51.2500 -100.9500 104° East 490 564 37,000  Level Winnipeg Center
Wed 09:16:09 PM 51.2167 -100.7333 104° East 500 575 37,000  Level Winnipeg Center
Wed 09:17:09 PM 51.1833 -100.5167 113° Southeast 500 575 37,000  Level Winnipeg Center
Wed 09:18:09 PM 51.1333 -100.3333 104° East 500 575 37,000  Level Winnipeg Center
Wed 09:19:09 PM 51.1000 -100.1167 104° East 490 564 37,000  Level Winnipeg Center
Wed 09:20:09 PM 51.0667 -99.9000 104° East 490 564 37,000  Level Winnipeg Center
Wed 09:21:09 PM 51.0333 -99.6833 104° East 490 564 37,000  Level Winnipeg Center
Wed 09:22:09 PM 51.0000 -99.4667 97° East 490 564 37,000  Level Winnipeg Center
Wed 09:23:09 PM 50.9833 -99.2500 104° East 490 564 37,000  Level Winnipeg Center
Wed 09:24:09 PM 50.9500 -99.0333 104° East 490 564 37,000  Level Winnipeg Center
Wed 09:25:09 PM 50.9167 -98.8167 105° East 490 564 37,000  Level Winnipeg Center
Wed 09:26:09 PM 50.8833 -98.6167 105° East 490 564 37,000  Level Winnipeg Center
Wed 09:27:09 PM 50.8500 -98.4167 105° East 490 564 37,000  Level Winnipeg Center
Wed 09:28:09 PM 50.8167 -98.2167 104° East 490 564 37,000  Level Winnipeg Center
Wed 09:29:09 PM 50.7833 -98.0000 103° East 490 564 37,000  Level Winnipeg Center
Wed 09:30:09 PM 50.7500 -97.7667 105° East 500 575 37,000  Level Winnipeg Center
Wed 09:31:09 PM 50.7167 -97.5667 103° East 500 575 37,000  Level Winnipeg Center
Wed 09:32:09 PM 50.6833 -97.3333 104° East 500 575 37,000  Level Winnipeg Center
Wed 09:33:09 PM 50.6500 -97.1167 106° East 500 575 37,000  Level Winnipeg Center
Wed 09:34:09 PM 50.6167 -96.9333 103° East 500 575 37,000  Level Winnipeg Center
Wed 09:35:09 PM 50.5833 -96.7000 106° East 490 564 37,000  Level Winnipeg Center
Wed 09:36:09 PM 50.5500 -96.5167 103° East 490 564 37,000  Level Winnipeg Center
Wed 09:37:09 PM 50.5167 -96.2833 106° East 490 564 37,000  Level Winnipeg Center
Wed 09:38:09 PM 50.4833 -96.1000 109° East 490 564 37,000  Level Winnipeg Center
Wed 09:39:09 PM 50.4333 -95.8667 113° Southeast 490 564 37,000  Level Winnipeg Center
Wed 09:40:09 PM 50.3833 -95.6833 103° East 490 564 37,000  Level Winnipeg Center
Wed 09:41:09 PM 50.3500 -95.4667 105° East 490 564 37,000  Level Winnipeg Center
Wed 09:42:09 PM 50.3167 -95.2667 103° East 490 564 37,000  Level Winnipeg Center
Wed 09:43:09 PM 50.2833 -95.0500 105° East 490 564 37,000  Level Winnipeg Center
Wed 09:44:09 PM 50.2500 -94.8500 110° East 490 564 37,000  Level Winnipeg Center
Wed 09:45:09 PM 50.2000 -94.6333 105° East 490 564 37,000  Level Winnipeg Center
Wed 09:46:09 PM 50.1667 -94.4333 103° East 490 564 37,000  Level Winnipeg Center
Wed 09:47:09 PM 50.1333 -94.2167 111° Southeast 490 564 37,000  Level Winnipeg Center
Wed 09:48:09 PM 50.0833 -94.0167 104° East 490 564 37,000  Level Winnipeg Center
Wed 09:49:09 PM 50.0500 -93.8167 103° East 490 564 37,000  Level Winnipeg Center
Wed 09:50:09 PM 50.0167 -93.6000 111° Southeast 490 564 37,000  Level Winnipeg Center
Wed 09:51:09 PM 49.9667 -93.4000 104° East 490 564 37,000  Level Winnipeg Center
Wed 09:52:09 PM 49.9333 -93.2000 106° East 490 564 37,000  Level Winnipeg Center
Wed 09:53:09 PM 49.9000 -93.0167 117° Southeast 490 564 37,000  Level Winnipeg Center
Wed 09:54:09 PM 49.8333 -92.8167 111° Southeast 490 564 37,000  Level Winnipeg Center
Wed 09:55:09 PM 49.7833 -92.6167 117° Southeast 500 575 37,000  Level Winnipeg Center
Wed 09:56:09 PM 49.7167 -92.4167 111° Southeast 500 575 37,000  Level Winnipeg Center
Wed 09:57:09 PM 49.6667 -92.2167 119° Southeast 490 564 37,000  Level Winnipeg Center
Wed 09:58:09 PM 49.6000 -92.0333 104° East 490 564 37,000  Level Winnipeg Center
Wed 09:59:09 PM 49.5667 -91.8333 123° Southeast 490 564 37,000  Level Winnipeg Center
Wed 10:00:09 PM 49.4833 -91.6333 106° East 490 564 37,000  Level Winnipeg Center
Wed 10:01:09 PM 49.4500 -91.4500 125° Southeast 490 564 37,000  Level Winnipeg Center
Wed 10:02:09 PM 49.3667 -91.2667 113° Southeast 490 564 37,000  Level Winnipeg Center
Wed 10:03:09 PM 49.3167 -91.0833 117° Southeast 490 564 37,000  Level Winnipeg Center
Wed 10:04:09 PM 49.2500 -90.8833 121° Southeast 490 564 37,000  Level Winnipeg Center
Wed 10:05:09 PM 49.1833 -90.7167 107° East 480 552 37,000  Level Winnipeg Center
Wed 10:06:09 PM 49.1500 -90.5500 117° Southeast 480 552 37,000  Level Winnipeg Center
Wed 10:07:09 PM 49.0833 -90.3500 117° Southeast 490 564 37,000  Level Winnipeg Center
Wed 10:08:09 PM 49.0167 -90.1500 121° Southeast 480 552 37,000  Level Winnipeg Center
Wed 10:09:09 PM 48.9500 -89.9833 111° Southeast 480 552 37,000  Level Winnipeg Center
Wed 10:10:09 PM 48.9000 -89.7833 121° Southeast 480 552 37,000  Level Winnipeg Center
Wed 10:11:09 PM 48.8333 -89.6167 117° Southeast 480 552 37,000  Level Winnipeg Center
Wed 10:12:09 PM 48.7667 -89.4167 114° Southeast 480 552 37,000  Level Winnipeg Center
Wed 10:13:09 PM 48.7167 -89.2500 121° Southeast 480 552 37,000  Level Winnipeg Center
Wed 10:14:09 PM 48.6500 -89.0833 119° Southeast 480 552 37,000  Level Winnipeg Center
Wed 10:15:09 PM 48.5833 -88.9000 121° Southeast 480 552 37,000  Level Winnipeg Center
Wed 10:16:09 PM 48.5167 -88.7333 117° Southeast 480 552 37,000  Level Winnipeg Center
Wed 10:17:09 PM 48.4500 -88.5333 114° Southeast 480 552 37,000  Level Winnipeg Center
Wed 10:18:09 PM 48.4000 -88.3667 119° Southeast 480 552 37,000  Level Winnipeg Center
Wed 10:19:09 PM 48.3333 -88.1833 117° Southeast 490 564 37,000  Level Winnipeg Center
Wed 10:20:09 PM 48.2667 -87.9833 124° Southeast 490 564 37,000  Level Winnipeg Center
Wed 10:21:09 PM 48.2000 -87.8333 116° Southeast 490 564 37,000  Level Winnipeg Center
Wed 10:22:09 PM 48.1333 -87.6333 121° Southeast 490 564 37,000  Level Winnipeg Center
Wed 10:23:09 PM 48.0667 -87.4667 124° Southeast 490 564 37,000  Level Winnipeg Center
Wed 10:24:09 PM 47.9833 -87.2833 114° Southeast 490 564 37,000  Level Winnipeg Center
Wed 10:25:09 PM 47.9333 -87.1167 130° Southeast 490 564 37,000  Level Winnipeg Center
Wed 10:26:09 PM 47.8500 -86.9667 118° Southeast 490 564 37,000  Level Winnipeg Center
Wed 10:27:09 PM 47.7833 -86.7833 116° Southeast 500 575 37,000  Level Winnipeg Center
Wed 10:28:09 PM 47.7167 -86.5833 118° Southeast 500 575 37,000  Level Winnipeg Center
Wed 10:29:09 PM 47.6500 -86.4000 123° Southeast 500 575 37,000 50 Level Winnipeg Center
Wed 10:30:09 PM 47.5833 -86.2500 124° Southeast 500 575 37,100  Climbing Winnipeg Center
Wed 10:31:09 PM 47.5000 -86.0667 121° Southeast 490 564 37,000 -50 Descending Winnipeg Center
Wed 10:32:09 PM 47.4333 -85.9000 118° Southeast 490 564 37,000  Level Winnipeg Center
Wed 10:33:09 PM 47.3667 -85.7167 118° Southeast 490 564 37,000  Level Winnipeg Center
Wed 10:34:09 PM 47.3000 -85.5333 123° Southeast 490 564 37,000  Level Winnipeg Center
Wed 10:35:09 PM 47.2333 -85.3833 124° Southeast 490 564 37,000  Level Winnipeg Center
Wed 10:36:09 PM 47.1500 -85.2000 120° Southeast 490 564 37,000  Level Winnipeg Center
Wed 10:37:09 PM 47.0833 -85.0333 126° Southeast 490 564 37,000  Level Winnipeg Center
Wed 10:38:09 PM 47.0000 -84.8667 120° Southeast 490 564 37,000  Level Winnipeg Center
Wed 10:39:09 PM 46.9333 -84.7000 116° Southeast 490 564 37,000  Level Winnipeg Center
Wed 10:40:09 PM 46.8833 -84.5500 124° Southeast 480 552 37,000 -50 Level Winnipeg Center
Wed 10:41:09 PM 46.8000 -84.3667 126° Southeast 480 552 36,900  Descending Winnipeg Center
Wed 10:42:09 PM 46.7167 -84.2000 123° Southeast 490 564 37,000 45 Climbing Winnipeg Center
Wed 10:43:22 PM 46.6500 -84.0500 116° Southeast 490 564 37,000 45 Level Toronto Center
Wed 10:44:22 PM 46.5833 -83.8500 123° Southeast 490 564 37,100  Climbing Toronto Center
Wed 10:45:22 PM 46.5167 -83.7000 120° Southeast 490 564 37,000 -50 Descending Toronto Center
Wed 10:46:22 PM 46.4500 -83.5333 123° Southeast 490 564 37,000  Level Toronto Center
Wed 10:47:22 PM 46.3667 -83.3500 113° Southeast 490 564 37,000  Level Toronto Center
Wed 10:48:22 PM 46.3167 -83.1833 123° Southeast 490 564 37,000  Level Toronto Center
Wed 10:49:22 PM 46.2333 -83.0000 126° Southeast 490 564 37,000  Level Toronto Center
Wed 10:50:22 PM 46.1667 -82.8667 118° Southeast 480 552 37,000  Level Toronto Center
Wed 10:51:22 PM 46.1000 -82.6833 120° Southeast 480 552 37,000  Level Toronto Center
Wed 10:52:22 PM 46.0333 -82.5167 120° Southeast 480 552 37,000  Level Toronto Center
Wed 10:53:22 PM 45.9667 -82.3500 129° Southeast 480 552 37,000  Level Toronto Center
Wed 10:54:22 PM 45.8833 -82.2000 118° Southeast 470 541 37,000  Level Toronto Center
Wed 10:55:22 PM 45.8167 -82.0167 126° Southeast 480 552 37,000  Level Toronto Center
Wed 10:56:22 PM 45.7500 -81.8833 120° Southeast 480 552 37,000  Level Toronto Center
Wed 10:57:22 PM 45.6833 -81.7167 122° Southeast 480 552 37,000  Level Toronto Center
Wed 10:58:22 PM 45.6167 -81.5667 134° Southeast 480 552 37,000  Level Toronto Center
Wed 10:59:22 PM 45.5167 -81.4167 141° Southeast 470 541 37,000  Level Toronto Center
Wed 11:00:22 PM 45.4167 -81.3000 149° Southeast 470 541 37,000  Level Toronto Center
Wed 11:01:22 PM 45.3000 -81.2000 145° Southeast 470 541 37,000  Level Toronto Center
Wed 11:02:22 PM 45.2000 -81.1000 149° Southeast 470 541 37,000 -450 Level Toronto Center
Wed 11:03:22 PM 45.0833 -81.0000 145° Southeast 460 529 36,100 -950 Descending Toronto Center
Wed 11:04:22 PM 44.9833 -80.9000 145° Southeast 470 541 35,100 -1,300 Descending Toronto Center
Wed 11:05:22 PM 44.9000 -80.8167 141° Southeast 460 529 33,500 -2,400 Descending Toronto Center
Wed 11:06:22 PM 44.7833 -80.6833 155° Southeast 450 518 30,300 -2,750 Descending Toronto Center
Wed 11:07:22 PM 44.6833 -80.6167 145° Southeast 450 518 28,000 -2,350 Descending Toronto Center
Wed 11:08:22 PM 44.5833 -80.5167 149° Southeast 430 495 25,600 -2,300 Descending Toronto Center
Wed 11:09:22 PM 44.4833 -80.4333 149° Southeast 410 472 23,400 -2,200 Descending Toronto Center
Wed 11:10:22 PM 44.3833 -80.3500 144° Southeast 400 460 21,200 -2,300 Descending Toronto Center
Wed 11:11:22 PM 44.3000 -80.2667 144° Southeast 390 449 18,800 -2,300 Descending Toronto Center
Wed 11:12:22 PM 44.2167 -80.1833 154° Southeast 380 437 16,600 -2,250 Descending Toronto Center
Wed 11:13:22 PM 44.1167 -80.1167 138° Southeast 360 414 14,300 -2,000 Descending Toronto Center
Wed 11:14:22 PM 44.0500 -80.0333 144° Southeast 360 414 12,600 -1,200 Descending Toronto Center
Wed 11:15:22 PM 43.9667 -79.9500 170° South 320 368 11,900 -1,150 Descending Toronto Center
Wed 11:16:22 PM 43.9000 -79.9333 172° South 300 345 10,300 -2,200 Descending Toronto Center
Wed 11:17:22 PM 43.8167 -79.9167 164° South 290 334 7,500 -2,150 Descending Toronto Center
Wed 11:18:22 PM 43.7333 -79.8833 180° South 290 334 6,000 -1,300 Descending Toronto Center
Wed 11:19:22 PM 43.6667 -79.8833 151° Southeast 270 311 4,900 -1,100 Descending Toronto Center
Wed 11:20:22 PM 43.6000 -79.8333 144° Southeast 250 288 3,800 -850 Descending Toronto Center
Wed 11:21:22 PM 43.5667 -79.8000 47° Northeast 220 253 3,200 -650 Descending Toronto Center
Wed 11:22:22 PM 43.6000 -79.7500 65° Northeast 150 173 2,500 -700 Descending Toronto Center
Wed 11:23:22 PM 43.6167 -79.7000 20° North 140 161 1,800 -700 Descending Toronto Center
Wed 11:24:22 PM 43.6500 -79.6833 20° North 140 161 1,100 -700 Descending Toronto Center

Login

Don't have an account? Register now (free) for customized features, flight alerts, and more!